createdAt,value
2023-03-12T00:01:58.288Z,9.37
2023-03-12T00:04:24.556Z,5.47
2023-03-12T00:06:50.825Z,4.87
2023-03-12T00:09:17.088Z,10.00
2023-03-12T00:11:43.574Z,9.07
2023-03-12T00:14:09.842Z,4.33
2023-03-12T00:16:36.126Z,9.63
2023-03-12T00:19:02.440Z,6.17
2023-03-12T00:21:28.772Z,6.73
2023-03-12T00:23:55.044Z,7.40
2023-03-12T00:26:21.776Z,10.83
2023-03-12T00:28:48.740Z,6.67
2023-03-12T00:31:18.074Z,11.10
2023-03-12T00:33:45.101Z,6.03
2023-03-12T00:36:11.833Z,5.87
2023-03-12T00:38:38.164Z,9.23
2023-03-12T00:41:04.550Z,6.57
2023-03-12T00:43:30.826Z,4.37
2023-03-12T00:45:57.131Z,6.57
2023-03-12T00:48:23.509Z,6.67
2023-03-12T00:50:49.777Z,6.87
2023-03-12T00:53:16.136Z,3.67
2023-03-12T00:55:42.504Z,4.93
2023-03-12T00:58:08.775Z,5.73
2023-03-12T01:00:35.140Z,7.03
2023-03-12T01:03:01.683Z,7.83
2023-03-12T01:05:32.143Z,7.67
2023-03-12T01:07:59.191Z,3.93
2023-03-12T01:10:25.463Z,6.50
2023-03-12T01:12:51.800Z,7.67
2023-03-12T01:15:18.332Z,5.97
2023-03-12T01:17:44.750Z,8.53
2023-03-12T01:20:11.278Z,5.20
2023-03-12T01:22:37.996Z,7.10
2023-03-12T01:25:04.407Z,6.77
2023-03-12T01:27:30.688Z,5.50
2023-03-12T01:29:57.044Z,4.10
2023-03-12T01:32:23.516Z,6.50
2023-03-12T01:34:49.854Z,8.67
2023-03-12T01:37:16.128Z,10.63
2023-03-12T01:39:42.471Z,6.33
2023-03-12T01:42:08.742Z,10.70
2023-03-12T01:44:55.731Z,5.47
2023-03-12T01:47:22.408Z,4.80
2023-03-12T01:49:49.902Z,5.13
2023-03-12T01:52:36.446Z,7.67
2023-03-12T01:55:05.384Z,10.37
2023-03-12T01:57:36.165Z,6.50
2023-03-12T02:00:07.619Z,6.03
2023-03-12T02:02:35.151Z,5.17
2023-03-12T02:05:11.809Z,8.63
2023-03-12T02:10:59.728Z,8.70
2023-03-12T02:13:26.076Z,7.07
2023-03-12T02:15:52.453Z,6.60
2023-03-12T02:18:19.264Z,6.60
2023-03-12T02:20:49.520Z,8.93
2023-03-12T02:23:15.816Z,8.57
2023-03-12T02:25:43.899Z,7.07
2023-03-12T02:28:12.782Z,6.87
2023-03-12T02:30:39.980Z,8.57
2023-03-12T02:33:07.534Z,9.90
2023-03-12T02:35:34.319Z,5.80
2023-03-12T02:38:00.880Z,14.00
2023-03-12T02:40:33.431Z,8.83
2023-03-12T02:43:01.226Z,8.90
2023-03-12T02:45:29.809Z,10.47
2023-03-12T02:47:56.119Z,7.80
2023-03-12T02:50:22.561Z,12.83
2023-03-12T02:52:48.904Z,9.30
2023-03-12T02:55:15.230Z,9.37
2023-03-12T02:57:43.625Z,12.97
2023-03-12T03:00:12.332Z,11.17
2023-03-12T03:02:39.474Z,9.87
2023-03-12T03:05:06.093Z,12.30
2023-03-12T03:07:32.451Z,10.00
2023-03-12T03:10:04.022Z,14.37
2023-03-12T03:12:31.163Z,8.83
2023-03-12T03:14:57.524Z,13.00
2023-03-12T03:17:24.489Z,10.00
2023-03-12T03:19:51.494Z,13.10
2023-03-12T03:22:18.513Z,12.90
2023-03-12T03:24:44.862Z,10.30
2023-03-12T03:27:11.421Z,10.77
2023-03-12T03:29:37.787Z,8.40
2023-03-12T03:32:04.466Z,10.13
2023-03-12T03:34:30.961Z,13.60
2023-03-12T03:36:57.299Z,14.77
2023-03-12T03:39:25.130Z,13.57
2023-03-12T03:41:52.169Z,15.83
2023-03-12T03:44:18.751Z,12.17
2023-03-12T03:46:45.196Z,16.23
2023-03-12T03:49:11.566Z,16.23
2023-03-12T03:51:37.966Z,18.30
2023-03-12T03:54:04.307Z,15.33
2023-03-12T03:56:30.596Z,14.40
2023-03-12T03:58:57.853Z,13.83
2023-03-12T04:01:24.132Z,15.87
2023-03-12T04:03:50.412Z,18.87
2023-03-12T04:06:16.735Z,17.93
2023-03-12T04:08:43.128Z,19.83
2023-03-12T04:11:10.886Z,16.73
2023-03-12T04:13:37.583Z,17.30
2023-03-12T04:16:04.322Z,19.93
2023-03-12T04:18:30.661Z,22.13
2023-03-12T04:20:57.028Z,22.37
2023-03-12T04:23:23.492Z,21.10
2023-03-12T04:25:49.828Z,22.67
2023-03-12T04:28:16.229Z,15.73
2023-03-12T04:30:42.567Z,14.90
2023-03-12T04:33:08.907Z,19.70
2023-03-12T04:35:36.543Z,17.63
2023-03-12T04:38:04.060Z,23.63
2023-03-12T04:40:30.467Z,22.37
2023-03-12T04:42:56.812Z,18.30
2023-03-12T04:45:23.200Z,18.30
2023-03-12T04:47:49.581Z,21.13
2023-03-12T04:50:15.955Z,22.23
2023-03-12T04:52:43.416Z,16.63
2023-03-12T04:55:09.831Z,20.83
2023-03-12T04:57:36.142Z,21.00
2023-03-12T05:00:02.871Z,23.87
2023-03-12T05:02:29.242Z,22.53
2023-03-12T05:04:56.481Z,44.43
2023-03-12T05:07:22.811Z,30.47
2023-03-12T05:09:49.118Z,25.30
2023-03-12T05:12:15.538Z,25.97
2023-03-12T05:14:41.902Z,23.00
2023-03-12T05:17:08.188Z,28.43
2023-03-12T05:19:34.554Z,31.33
2023-03-12T05:22:01.002Z,30.77
2023-03-12T05:24:28.526Z,29.90
2023-03-12T05:26:54.828Z,30.47
2023-03-12T05:29:21.328Z,41.23
2023-03-12T05:31:47.788Z,51.23
2023-03-12T05:34:14.245Z,40.70
2023-03-12T05:36:40.582Z,63.80
2023-03-12T05:39:07.405Z,66.40
2023-03-12T05:41:33.711Z,39.90
2023-03-12T05:44:00.146Z,40.13
2023-03-12T05:46:27.181Z,69.97
2023-03-12T05:48:53.899Z,52.77
2023-03-12T05:51:20.868Z,36.63
2023-03-12T05:53:47.207Z,54.77
2023-03-12T05:56:16.488Z,84.90
2023-03-12T05:58:42.868Z,39.23
2023-03-12T06:01:17.135Z,47.03
2023-03-12T06:03:43.519Z,26.87
2023-03-12T06:06:10.106Z,36.87
2023-03-12T06:08:36.406Z,38.03
2023-03-12T06:11:02.807Z,62.23
2023-03-12T06:13:29.266Z,42.63
2023-03-12T06:16:01.125Z,33.47
2023-03-12T06:18:27.444Z,30.57
2023-03-12T06:20:53.739Z,95.07
2023-03-12T06:23:21.580Z,39.33
2023-03-12T06:25:47.988Z,28.00
2023-03-12T06:28:14.309Z,47.30
2023-03-12T06:30:40.717Z,49.13
2023-03-12T06:33:08.859Z,45.17
2023-03-12T06:35:35.978Z,45.50
2023-03-12T06:38:02.414Z,32.67
2023-03-12T06:40:28.843Z,52.13
2023-03-12T06:42:55.154Z,92.77
2023-03-12T06:45:21.467Z,160.77
2023-03-12T06:47:47.791Z,194.03
2023-03-12T06:50:14.133Z,98.13
2023-03-12T06:52:40.593Z,188.77
2023-03-12T06:55:07.121Z,42.93
2023-03-12T06:57:33.464Z,85.20
2023-03-12T06:59:59.754Z,228.87
2023-03-12T07:02:26.090Z,100.67
2023-03-12T07:04:52.558Z,46.47
2023-03-12T07:07:20.006Z,120.23
2023-03-12T07:09:46.330Z,563.60
2023-03-12T07:12:12.742Z,722.80
2023-03-12T07:14:39.035Z,363.87
2023-03-12T07:17:05.456Z,643.40
2023-03-12T07:19:32.163Z,681.23
2023-03-12T07:21:58.580Z,529.30
2023-03-12T07:24:25.031Z,827.23
2023-03-12T07:26:51.337Z,711.00
2023-03-12T07:29:17.669Z,717.17
2023-03-12T07:31:44.091Z,987.87
2023-03-12T07:34:10.508Z,796.13
2023-03-12T07:36:36.975Z,910.67
2023-03-12T07:39:04.529Z,732.80
2023-03-12T07:41:30.889Z,656.60
2023-03-12T07:43:57.312Z,774.10
2023-03-12T07:46:23.846Z,772.07
2023-03-12T07:48:50.181Z,736.83
2023-03-12T07:51:17.086Z,799.53
2023-03-12T07:53:43.439Z,596.47
2023-03-12T07:56:09.916Z,551.20
2023-03-12T07:58:36.593Z,218.73
2023-03-12T08:01:03.136Z,297.30
2023-03-12T08:03:30.631Z,325.13
2023-03-12T08:05:58.756Z,239.93
2023-03-12T08:08:25.478Z,93.90
2023-03-12T08:10:52.229Z,104.93
2023-03-12T08:13:19.061Z,162.17
2023-03-12T08:15:45.362Z,172.97
2023-03-12T08:18:11.726Z,141.80
2023-03-12T08:20:38.032Z,155.30
2023-03-12T08:23:04.385Z,230.20
2023-03-12T08:25:30.822Z,156.17
2023-03-12T08:27:57.150Z,134.63
2023-03-12T08:30:23.467Z,110.37
2023-03-12T08:32:49.913Z,265.70
2023-03-12T08:35:16.427Z,402.57
2023-03-12T08:37:42.716Z,717.80
2023-03-12T08:40:13.273Z,291.83
2023-03-12T08:42:40.862Z,69.13
2023-03-12T08:45:07.487Z,178.23
2023-03-12T08:47:33.808Z,113.80
2023-03-12T08:50:00.261Z,140.93
2023-03-12T08:52:26.602Z,194.03
2023-03-12T08:54:52.917Z,337.70
2023-03-12T08:57:19.239Z,90.17
2023-03-12T08:59:45.664Z,47.90
2023-03-12T09:02:12.510Z,22.07
2023-03-12T09:04:38.863Z,27.20
2023-03-12T09:07:05.588Z,21.33
2023-03-12T09:09:32.399Z,13.38
2023-03-12T09:11:58.747Z,15.87
2023-03-12T09:17:11.397Z,15.80
2023-03-12T09:19:37.690Z,14.98
2023-03-12T09:22:04.134Z,16.13
2023-03-12T09:24:30.448Z,17.55
2023-03-12T09:26:56.831Z,26.57
2023-03-12T09:29:23.542Z,15.20
2023-03-12T09:31:50.034Z,13.90
2023-03-12T09:34:16.660Z,23.58
2023-03-12T09:36:43.055Z,16.40
2023-03-12T09:39:09.387Z,14.77
2023-03-12T09:41:38.865Z,23.08
2023-03-12T09:44:23.912Z,15.98
2023-03-12T09:46:51.860Z,22.27
2023-03-12T09:49:22.204Z,16.00
2023-03-12T09:51:53.984Z,21.80
2023-03-12T09:54:23.683Z,14.85
2023-03-12T09:56:51.129Z,18.92
2023-03-12T09:59:17.488Z,16.70
2023-03-12T10:01:47.900Z,23.48
2023-03-12T10:04:24.438Z,14.55
2023-03-12T10:07:12.874Z,16.52
2023-03-12T10:09:48.388Z,27.08
2023-03-12T10:12:21.981Z,18.77
2023-03-12T10:14:55.792Z,20.17
2023-03-12T10:17:32.644Z,23.98
2023-03-12T10:20:17.728Z,24.52
2023-03-12T10:22:49.235Z,17.88
2023-03-12T10:25:21.940Z,40.47
2023-03-12T10:27:48.924Z,23.55
2023-03-12T10:30:20.919Z,22.08
2023-03-12T10:32:49.996Z,21.95
2023-03-12T10:35:21.636Z,19.88
2023-03-12T10:37:48.222Z,23.38
2023-03-12T10:40:16.212Z,25.10
2023-03-12T10:42:43.075Z,21.20
2023-03-12T10:45:09.402Z,16.65
2023-03-12T10:47:42.272Z,24.58
2023-03-12T10:50:11.653Z,28.10
2023-03-12T10:52:37.962Z,21.35
2023-03-12T10:55:11.640Z,23.90
2023-03-12T10:57:41.718Z,28.50
2023-03-12T11:00:11.958Z,29.75
2023-03-12T11:02:38.255Z,29.00
2023-03-12T11:05:19.384Z,35.92
2023-03-12T11:07:45.736Z,23.17
2023-03-12T11:10:14.175Z,27.80
2023-03-12T11:12:50.761Z,26.13
2023-03-12T11:15:28.983Z,29.40
2023-03-12T11:18:14.143Z,21.83
2023-03-12T11:20:40.496Z,25.63
2023-03-12T11:23:14.197Z,26.13
2023-03-12T11:25:40.522Z,24.35
2023-03-12T11:28:12.095Z,29.00
2023-03-12T11:30:39.789Z,23.77
2023-03-12T11:33:06.445Z,25.20
2023-03-12T11:35:51.588Z,28.17
2023-03-12T11:38:17.892Z,25.80
2023-03-12T11:40:53.348Z,25.83
2023-03-12T11:43:43.253Z,25.05
2023-03-12T11:46:30.469Z,28.90
2023-03-12T11:49:08.950Z,23.25
2023-03-12T11:51:58.372Z,29.48
2023-03-12T11:54:27.543Z,26.52
2023-03-12T11:57:06.208Z,26.92
2023-03-12T11:59:50.682Z,21.05
2023-03-12T12:02:17.026Z,24.92
2023-03-12T12:04:46.462Z,23.60
2023-03-12T12:07:32.919Z,21.17
2023-03-12T12:10:07.624Z,21.38
2023-03-12T12:12:36.999Z,18.38
2023-03-12T12:15:09.104Z,19.15
2023-03-12T12:17:53.874Z,29.77
2023-03-12T12:20:21.506Z,20.30
2023-03-12T12:23:06.082Z,24.83
2023-03-12T12:25:51.239Z,20.67
2023-03-12T12:28:23.921Z,14.63
2023-03-12T12:30:57.703Z,25.00
2023-03-12T12:34:01.357Z,26.45
2023-03-12T12:36:29.669Z,22.77
2023-03-12T12:39:01.224Z,25.60
2023-03-12T12:41:30.384Z,22.33
2023-03-12T12:44:02.403Z,26.27
2023-03-12T12:46:32.356Z,26.58
2023-03-12T12:49:32.096Z,25.92
2023-03-12T12:52:00.870Z,24.80
2023-03-12T12:54:35.333Z,25.65
2023-03-12T12:57:01.676Z,18.85
2023-03-12T12:59:31.815Z,21.60
2023-03-12T13:01:59.507Z,22.85
2023-03-12T13:04:25.859Z,21.67
2023-03-12T13:06:58.346Z,26.35
2023-03-12T13:09:44.753Z,17.02
2023-03-12T13:12:20.256Z,19.67
2023-03-12T13:14:47.526Z,14.70
2023-03-12T13:17:27.694Z,20.90
2023-03-12T13:20:01.654Z,25.10
2023-03-12T13:22:46.847Z,20.77
2023-03-12T13:25:19.203Z,22.83
2023-03-12T13:27:46.017Z,23.65
2023-03-12T13:30:31.132Z,31.02
2023-03-12T13:32:57.494Z,25.98
2023-03-12T13:35:23.940Z,22.38
2023-03-12T13:37:53.306Z,22.90
2023-03-12T13:40:28.687Z,28.70
2023-03-12T13:43:03.323Z,23.27
2023-03-12T13:45:31.830Z,26.17
2023-03-12T13:48:00.370Z,21.17
2023-03-12T13:50:27.394Z,28.17
2023-03-12T13:53:05.203Z,22.13
2023-03-12T13:55:33.019Z,30.00
2023-03-12T13:58:00.382Z,28.98
2023-03-12T14:00:31.943Z,26.42
2023-03-12T14:02:59.868Z,23.98
2023-03-12T14:05:26.559Z,26.25
2023-03-12T14:07:56.010Z,18.63
2023-03-12T14:10:48.732Z,19.33
2023-03-12T14:13:21.720Z,20.73
2023-03-12T14:15:57.437Z,24.67
2023-03-12T14:18:25.811Z,22.92
2023-03-12T14:20:56.594Z,22.20
2023-03-12T14:23:24.942Z,22.77
2023-03-12T14:25:53.920Z,19.65
2023-03-12T14:28:21.734Z,23.95
2023-03-12T14:31:03.508Z,23.20
2023-03-12T14:33:33.480Z,19.88
2023-03-12T14:36:29.136Z,24.08
2023-03-12T14:39:00.094Z,29.40
2023-03-12T14:41:31.158Z,24.95
2023-03-12T14:44:04.013Z,19.80
2023-03-12T14:46:30.857Z,20.77
2023-03-12T14:48:57.299Z,22.40
2023-03-12T14:51:25.587Z,24.40
2023-03-12T14:53:52.662Z,15.43
2023-03-12T14:56:30.458Z,17.08
2023-03-12T14:58:58.146Z,21.63
2023-03-12T15:01:26.528Z,20.55
2023-03-12T15:03:58.351Z,25.73
2023-03-12T15:06:30.802Z,19.27
2023-03-12T15:08:57.483Z,20.02
2023-03-12T15:11:25.478Z,17.27
2023-03-12T15:13:53.408Z,17.50
2023-03-12T15:16:20.353Z,17.98
2023-03-12T15:18:48.763Z,16.33
2023-03-12T15:21:15.216Z,25.27
2023-03-12T15:23:42.627Z,17.52
2023-03-12T15:26:30.574Z,19.92
2023-03-12T15:29:15.726Z,20.77
2023-03-12T15:31:43.191Z,20.52
2023-03-12T15:34:11.284Z,19.73
2023-03-12T15:36:39.118Z,24.52
2023-03-12T15:39:26.472Z,20.05
2023-03-12T15:41:53.553Z,17.55
2023-03-12T15:44:22.012Z,19.27
2023-03-12T15:46:49.875Z,21.98
2023-03-12T15:49:20.932Z,16.77
2023-03-12T15:51:57.937Z,16.42
2023-03-12T15:54:26.044Z,17.30
2023-03-12T15:56:52.349Z,17.92
2023-03-12T15:59:26.010Z,24.80
2023-03-12T16:01:53.579Z,16.98
2023-03-12T16:04:20.374Z,19.45
2023-03-12T16:06:49.162Z,18.92
2023-03-12T16:09:21.016Z,18.30
2023-03-12T16:11:47.828Z,22.77
2023-03-12T16:14:19.084Z,18.35
2023-03-12T16:16:45.500Z,18.67
2023-03-12T16:19:13.117Z,18.42
2023-03-12T16:21:39.574Z,24.65
2023-03-12T16:24:05.987Z,16.95
2023-03-12T16:26:34.333Z,21.00
2023-03-12T16:29:00.762Z,19.90
2023-03-12T16:31:27.162Z,22.98
2023-03-12T16:33:53.574Z,19.48
2023-03-12T16:36:19.940Z,20.85
2023-03-12T16:38:46.918Z,23.00
2023-03-12T16:41:14.289Z,16.27
2023-03-12T16:43:41.667Z,21.38
2023-03-12T16:46:09.521Z,22.05
2023-03-12T16:48:36.437Z,21.02
2023-03-12T16:51:03.297Z,19.25
2023-03-12T16:53:29.670Z,21.80
2023-03-12T16:56:00.687Z,15.73
2023-03-12T16:58:27.942Z,25.58
2023-03-12T17:00:54.943Z,22.90
2023-03-12T17:03:30.146Z,21.25
2023-03-12T17:05:57.520Z,23.00
2023-03-12T17:08:23.993Z,24.13
2023-03-12T17:10:50.393Z,19.38
2023-03-12T17:13:21.335Z,27.55
2023-03-12T17:15:48.024Z,29.45
2023-03-12T17:18:14.410Z,21.13
2023-03-12T17:20:42.109Z,28.98
2023-03-12T17:23:09.027Z,24.33
2023-03-12T17:25:36.318Z,25.05
2023-03-12T17:28:02.886Z,19.25
2023-03-12T17:30:30.522Z,25.75
2023-03-12T17:33:17.104Z,22.67
2023-03-12T17:35:44.143Z,22.90
2023-03-12T17:38:11.266Z,24.17
2023-03-12T17:40:41.483Z,26.10
2023-03-12T17:43:07.904Z,23.95
2023-03-12T17:45:35.881Z,23.25
2023-03-12T17:48:02.332Z,20.20
2023-03-12T17:50:28.635Z,22.45
2023-03-12T17:52:54.936Z,19.20
2023-03-12T17:55:21.254Z,23.23
2023-03-12T17:57:47.638Z,20.58
2023-03-12T18:00:14.112Z,24.52
2023-03-12T18:02:41.098Z,25.00
2023-03-12T18:05:08.350Z,21.35
2023-03-12T18:07:34.875Z,22.60
2023-03-12T18:10:01.356Z,20.13
2023-03-12T18:12:27.823Z,24.58
2023-03-12T18:14:54.130Z,20.67
2023-03-12T18:17:20.514Z,25.05
2023-03-12T18:19:46.814Z,27.13
2023-03-12T18:22:14.533Z,21.70
2023-03-12T18:24:41.485Z,24.05
2023-03-12T18:27:07.982Z,19.25
2023-03-12T18:29:35.636Z,24.55
2023-03-12T18:32:02.013Z,21.85
2023-03-12T18:34:28.374Z,22.13
2023-03-12T18:36:54.809Z,21.45
2023-03-12T18:39:21.146Z,23.13
2023-03-12T18:41:47.797Z,19.30
2023-03-12T18:44:14.112Z,21.38
2023-03-12T18:46:40.522Z,22.05
2023-03-12T18:49:07.804Z,25.95
2023-03-12T18:51:34.825Z,26.15
2023-03-12T18:54:01.659Z,18.98
2023-03-12T18:56:28.592Z,19.60
2023-03-12T18:58:55.127Z,20.45
2023-03-12T19:01:21.639Z,22.02
2023-03-12T19:03:48.008Z,24.98
2023-03-12T19:06:15.774Z,21.73
2023-03-12T19:08:42.530Z,21.40
2023-03-12T19:11:10.183Z,23.02
2023-03-12T19:13:36.624Z,18.23
2023-03-12T19:16:05.227Z,18.63
2023-03-12T19:18:31.576Z,22.35
2023-03-12T19:20:57.886Z,23.65
2023-03-12T19:23:24.275Z,22.13
2023-03-12T19:25:50.727Z,21.90
2023-03-12T19:28:17.057Z,15.77
2023-03-12T19:30:43.408Z,16.73
2023-03-12T19:33:09.860Z,20.20
2023-03-12T19:35:40.526Z,20.67
2023-03-12T19:38:07.460Z,20.13
2023-03-12T19:40:34.232Z,19.55
2023-03-12T19:43:01.337Z,16.00
2023-03-12T19:45:27.713Z,17.33
2023-03-12T19:47:54.141Z,18.05
2023-03-12T19:50:20.444Z,18.92
2023-03-12T19:52:47.434Z,14.13
2023-03-12T19:55:14.118Z,19.48
2023-03-12T19:57:40.646Z,16.70
2023-03-12T20:00:12.164Z,19.70
2023-03-12T20:02:39.140Z,20.70
2023-03-12T20:05:06.256Z,17.90
2023-03-12T20:07:32.624Z,16.58
2023-03-12T20:09:58.938Z,18.65
2023-03-12T20:12:25.444Z,17.52
2023-03-12T20:14:51.884Z,20.25
2023-03-12T20:17:18.199Z,17.83
2023-03-12T20:19:44.594Z,18.20
2023-03-12T20:22:10.961Z,21.33
2023-03-12T20:24:37.409Z,17.77
2023-03-12T20:27:04.503Z,21.13
2023-03-12T20:29:30.894Z,16.67
2023-03-12T20:31:57.287Z,21.88
2023-03-12T20:34:23.611Z,17.75
2023-03-12T20:36:49.972Z,22.73
2023-03-12T20:39:16.462Z,18.38
2023-03-12T20:41:42.813Z,17.25
2023-03-12T20:44:09.203Z,17.10
2023-03-12T20:46:35.516Z,21.55
2023-03-12T20:49:01.880Z,21.77
2023-03-12T20:51:28.181Z,18.30
2023-03-12T20:53:54.511Z,33.20
2023-03-12T20:56:20.895Z,17.92
2023-03-12T20:58:47.247Z,16.65
2023-03-12T21:01:13.691Z,18.08
2023-03-12T21:03:40.093Z,18.35
2023-03-12T21:06:06.482Z,22.42
2023-03-12T21:08:34.309Z,20.77
2023-03-12T21:11:00.593Z,16.27
2023-03-12T21:13:26.963Z,21.20
2023-03-12T21:15:53.367Z,16.52
2023-03-12T21:18:19.744Z,19.35
2023-03-12T21:20:46.209Z,22.27
2023-03-12T21:23:12.595Z,19.60
2023-03-12T21:25:40.105Z,22.83
2023-03-12T21:28:07.420Z,17.38
2023-03-12T21:30:33.883Z,16.40
2023-03-12T21:33:03.757Z,18.52
2023-03-12T21:35:30.234Z,19.98
2023-03-12T21:37:56.849Z,20.92
2023-03-12T21:40:23.305Z,22.77
2023-03-12T21:42:49.977Z,21.00
2023-03-12T21:45:16.335Z,22.50
2023-03-12T21:47:42.628Z,18.17
2023-03-12T21:50:09.590Z,31.10
2023-03-12T21:52:41.500Z,22.27
2023-03-12T21:55:10.019Z,24.60
2023-03-12T21:57:36.446Z,19.17
2023-03-12T22:00:04.311Z,23.30
2023-03-12T22:02:31.576Z,28.52
2023-03-12T22:05:00.904Z,22.55
2023-03-12T22:07:29.880Z,20.20
2023-03-12T22:09:56.304Z,24.25
2023-03-12T22:12:22.672Z,20.10
2023-03-12T22:14:48.982Z,19.45
2023-03-12T22:17:15.330Z,20.63
2023-03-12T22:19:42.090Z,23.50
2023-03-12T22:22:08.850Z,23.73
2023-03-12T22:24:35.158Z,20.42
2023-03-12T22:27:06.521Z,26.63
2023-03-12T22:29:33.238Z,26.67
2023-03-12T22:31:59.629Z,23.13
2023-03-12T22:34:26.020Z,26.65
2023-03-12T22:36:52.381Z,23.42
2023-03-12T22:39:19.840Z,21.45
2023-03-12T22:41:50.400Z,23.25
2023-03-12T22:44:16.786Z,23.02
2023-03-12T22:46:43.212Z,23.10
2023-03-12T22:49:09.596Z,25.30
2023-03-12T22:51:35.973Z,22.63
2023-03-12T22:54:02.390Z,17.30
2023-03-12T22:56:28.761Z,18.42
2023-03-12T22:58:55.467Z,17.20
2023-03-12T23:01:22.714Z,17.48
2023-03-12T23:03:49.780Z,20.55
2023-03-12T23:06:23.336Z,25.30
2023-03-12T23:08:49.914Z,15.93
2023-03-12T23:11:17.325Z,22.35
2023-03-12T23:13:44.766Z,17.88
2023-03-12T23:16:12.642Z,17.13
2023-03-12T23:18:39.308Z,20.02
2023-03-12T23:21:07.096Z,25.90
2023-03-12T23:23:33.503Z,20.02
2023-03-12T23:26:00.479Z,24.92
2023-03-12T23:28:27.695Z,18.10
2023-03-12T23:30:57.955Z,18.00
2023-03-12T23:33:25.094Z,19.40
2023-03-12T23:35:59.217Z,19.85
2023-03-12T23:38:26.233Z,18.77
2023-03-12T23:40:52.760Z,16.40
2023-03-12T23:43:19.439Z,22.48
2023-03-12T23:45:45.817Z,17.17
2023-03-12T23:48:12.189Z,18.80
2023-03-12T23:50:38.645Z,17.35
2023-03-12T23:53:05.088Z,21.85
2023-03-12T23:55:31.382Z,17.02
2023-03-12T23:57:57.742Z,20.50
